sensor_id;sensor_type;location;lat;lon;timestamp;P1;durP1;ratioP1;P2;durP2;ratioP2
5257;SDS011;2651;51.594;9.928;2022-08-19T00:04:59;17.30;;;12.80;;
5257;SDS011;2651;51.594;9.928;2022-08-19T00:06:06;17.57;;;12.60;;
5257;SDS011;2651;51.594;9.928;2022-08-19T00:10:23;15.60;;;11.60;;
5257;SDS011;2651;51.594;9.928;2022-08-19T00:11:38;13.97;;;10.87;;
5257;SDS011;2651;51.594;9.928;2022-08-19T00:14:04;14.93;;;11.00;;
5257;SDS011;2651;51.594;9.928;2022-08-19T00:17:26;13.80;;;11.17;;
5257;SDS011;2651;51.594;9.928;2022-08-19T00:21:20;16.03;;;11.77;;
5257;SDS011;2651;51.594;9.928;2022-08-19T00:23:03;18.93;;;12.10;;
5257;SDS011;2651;51.594;9.928;2022-08-19T00:30:09;16.43;;;12.20;;
5257;SDS011;2651;51.594;9.928;2022-08-19T00:31:25;15.23;;;11.27;;
5257;SDS011;2651;51.594;9.928;2022-08-19T00:33:09;18.17;;;12.40;;
5257;SDS011;2651;51.594;9.928;2022-08-19T00:35:12;22.53;;;12.27;;
5257;SDS011;2651;51.594;9.928;2022-08-19T00:37:05;13.40;;;10.43;;
5257;SDS011;2651;51.594;9.928;2022-08-19T00:42:06;18.63;;;10.90;;
5257;SDS011;2651;51.594;9.928;2022-08-19T00:53:41;16.97;;;10.90;;
5257;SDS011;2651;51.594;9.928;2022-08-19T01:02:46;15.50;;;10.40;;
5257;SDS011;2651;51.594;9.928;2022-08-19T01:08:25;15.50;;;11.07;;
5257;SDS011;2651;51.594;9.928;2022-08-19T01:10:19;16.83;;;11.40;;
5257;SDS011;2651;51.594;9.928;2022-08-19T01:12:02;18.83;;;10.80;;
5257;SDS011;2651;51.594;9.928;2022-08-19T01:20:17;17.30;;;11.97;;
5257;SDS011;2651;51.594;9.928;2022-08-19T01:22:20;15.93;;;10.83;;
5257;SDS011;2651;51.594;9.928;2022-08-19T01:24:11;12.70;;;10.53;;
5257;SDS011;2651;51.594;9.928;2022-08-19T01:40:13;23.10;;;11.53;;
5257;SDS011;2651;51.594;9.928;2022-08-19T01:41:48;17.70;;;10.87;;
5257;SDS011;2651;51.594;9.928;2022-08-19T01:43:12;16.10;;;10.90;;
5257;SDS011;2651;51.594;9.928;2022-08-19T01:47:19;15.67;;;11.07;;
5257;SDS011;2651;51.594;9.928;2022-08-19T01:52:38;17.27;;;11.00;;
5257;SDS011;2651;51.594;9.928;2022-08-19T01:58:47;11.63;;;10.00;;
5257;SDS011;2651;51.594;9.928;2022-08-19T02:15:24;15.57;;;11.40;;
5257;SDS011;2651;51.594;9.928;2022-08-19T02:18:19;15.07;;;9.90;;
5257;SDS011;2651;51.594;9.928;2022-08-19T02:21:08;15.47;;;10.77;;
5257;SDS011;2651;51.594;9.928;2022-08-19T02:28:06;12.87;;;9.30;;
5257;SDS011;2651;51.594;9.928;2022-08-19T02:30:36;15.17;;;9.27;;
5257;SDS011;2651;51.594;9.928;2022-08-19T02:32:57;16.23;;;9.70;;
5257;SDS011;2651;51.594;9.928;2022-08-19T02:37:35;18.43;;;9.70;;
5257;SDS011;2651;51.594;9.928;2022-08-19T02:44:33;14.57;;;9.67;;
5257;SDS011;2651;51.594;9.928;2022-08-19T02:53:08;14.50;;;11.13;;
5257;SDS011;2651;51.594;9.928;2022-08-19T02:57:44;11.80;;;9.90;;
5257;SDS011;2651;51.594;9.928;2022-08-19T03:05:27;16.40;;;8.70;;
5257;SDS011;2651;51.594;9.928;2022-08-19T03:08:27;13.67;;;10.73;;
5257;SDS011;2651;51.594;9.928;2022-08-19T03:10:19;15.03;;;10.03;;
5257;SDS011;2651;51.594;9.928;2022-08-19T03:25:45;14.57;;;7.63;;
5257;SDS011;2651;51.594;9.928;2022-08-19T03:34:00;5.77;;;4.77;;
5257;SDS011;2651;51.594;9.928;2022-08-19T03:35:21;7.50;;;4.83;;
5257;SDS011;2651;51.594;9.928;2022-08-19T03:37:09;5.30;;;4.80;;
5257;SDS011;2651;51.594;9.928;2022-08-19T03:38:17;12.50;;;5.60;;
5257;SDS011;2651;51.594;9.928;2022-08-19T03:39:40;5.57;;;4.80;;
5257;SDS011;2651;51.594;9.928;2022-08-19T03:41:07;7.50;;;5.10;;
5257;SDS011;2651;51.594;9.928;2022-08-19T03:42:57;6.07;;;4.80;;
5257;SDS011;2651;51.594;9.928;2022-08-19T03:46:13;5.13;;;4.63;;
5257;SDS011;2651;51.594;9.928;2022-08-19T03:47:44;6.63;;;5.00;;
5257;SDS011;2651;51.594;9.928;2022-08-19T03:49:01;5.47;;;4.90;;
5257;SDS011;2651;51.594;9.928;2022-08-19T03:50:45;6.90;;;5.07;;
5257;SDS011;2651;51.594;9.928;2022-08-19T03:52:01;8.10;;;5.30;;
5257;SDS011;2651;51.594;9.928;2022-08-19T03:53:38;5.77;;;4.77;;
5257;SDS011;2651;51.594;9.928;2022-08-19T03:55:32;12.10;;;4.73;;
5257;SDS011;2651;51.594;9.928;2022-08-19T04:06:42;5.70;;;5.20;;
5257;SDS011;2651;51.594;9.928;2022-08-19T04:08:12;9.53;;;5.90;;
5257;SDS011;2651;51.594;9.928;2022-08-19T04:09:47;15.53;;;6.23;;
5257;SDS011;2651;51.594;9.928;2022-08-19T04:11:15;8.17;;;5.73;;
5257;SDS011;2651;51.594;9.928;2022-08-19T04:16:24;7.70;;;5.70;;
5257;SDS011;2651;51.594;9.928;2022-08-19T04:18:51;8.97;;;5.53;;
5257;SDS011;2651;51.594;9.928;2022-08-19T04:21:25;11.70;;;5.67;;
5257;SDS011;2651;51.594;9.928;2022-08-19T04:23:30;10.60;;;6.60;;
5257;SDS011;2651;51.594;9.928;2022-08-19T04:25:44;9.10;;;5.93;;
5257;SDS011;2651;51.594;9.928;2022-08-19T04:28:05;7.97;;;5.10;;
5257;SDS011;2651;51.594;9.928;2022-08-19T04:29:14;10.90;;;6.20;;
5257;SDS011;2651;51.594;9.928;2022-08-19T04:31:44;8.13;;;5.50;;
5257;SDS011;2651;51.594;9.928;2022-08-19T04:34:16;6.00;;;5.20;;
5257;SDS011;2651;51.594;9.928;2022-08-19T04:40:23;6.00;;;5.20;;
5257;SDS011;2651;51.594;9.928;2022-08-19T04:47:55;7.70;;;5.00;;
5257;SDS011;2651;51.594;9.928;2022-08-19T04:52:18;7.87;;;5.73;;
5257;SDS011;2651;51.594;9.928;2022-08-19T04:56:42;7.93;;;5.53;;
5257;SDS011;2651;51.594;9.928;2022-08-19T04:58:39;7.70;;;5.63;;
5257;SDS011;2651;51.594;9.928;2022-08-19T05:00:22;5.90;;;5.40;;
5257;SDS011;2651;51.594;9.928;2022-08-19T05:02:18;9.00;;;6.17;;
5257;SDS011;2651;51.594;9.928;2022-08-19T05:04:27;9.10;;;6.57;;
5257;SDS011;2651;51.594;9.928;2022-08-19T05:06:43;6.70;;;6.10;;
5257;SDS011;2651;51.594;9.928;2022-08-19T05:11:54;8.50;;;6.87;;
5257;SDS011;2651;51.594;9.928;2022-08-19T05:13:47;7.37;;;6.03;;
5257;SDS011;2651;51.594;9.928;2022-08-19T05:15:36;10.40;;;6.50;;
5257;SDS011;2651;51.594;9.928;2022-08-19T05:22:33;5.60;;;5.03;;
5257;SDS011;2651;51.594;9.928;2022-08-19T05:23:57;5.90;;;4.67;;
5257;SDS011;2651;51.594;9.928;2022-08-19T05:26:04;6.60;;;4.70;;
5257;SDS011;2651;51.594;9.928;2022-08-19T05:28:08;7.63;;;5.23;;
5257;SDS011;2651;51.594;9.928;2022-08-19T05:30:26;4.20;;;3.80;;
5257;SDS011;2651;51.594;9.928;2022-08-19T05:32:03;4.37;;;3.97;;
5257;SDS011;2651;51.594;9.928;2022-08-19T05:34:43;4.43;;;3.47;;
5257;SDS011;2651;51.594;9.928;2022-08-19T05:35:45;4.63;;;4.23;;
5257;SDS011;2651;51.594;9.928;2022-08-19T05:36:47;5.83;;;3.43;;
5257;SDS011;2651;51.594;9.928;2022-08-19T05:37:51;5.27;;;3.87;;
5257;SDS011;2651;51.594;9.928;2022-08-19T05:39:02;8.27;;;3.80;;
5257;SDS011;2651;51.594;9.928;2022-08-19T05:40:05;4.00;;;3.70;;
5257;SDS011;2651;51.594;9.928;2022-08-19T05:41:10;7.90;;;3.77;;
5257;SDS011;2651;51.594;9.928;2022-08-19T05:42:13;5.20;;;3.20;;
5257;SDS011;2651;51.594;9.928;2022-08-19T05:43:17;9.03;;;3.33;;
5257;SDS011;2651;51.594;9.928;2022-08-19T05:44:20;6.63;;;4.90;;
5257;SDS011;2651;51.594;9.928;2022-08-19T05:45:23;7.50;;;4.17;;
5257;SDS011;2651;51.594;9.928;2022-08-19T05:46:25;6.10;;;4.40;;
5257;SDS011;2651;51.594;9.928;2022-08-19T05:47:28;10.53;;;4.20;;
5257;SDS011;2651;51.594;9.928;2022-08-19T05:48:30;5.43;;;3.90;;
5257;SDS011;2651;51.594;9.928;2022-08-19T05:49:34;3.93;;;3.63;;
5257;SDS011;2651;51.594;9.928;2022-08-19T05:50:38;4.60;;;4.07;;
5257;SDS011;2651;51.594;9.928;2022-08-19T05:51:42;4.07;;;3.60;;
5257;SDS011;2651;51.594;9.928;2022-08-19T05:52:44;3.47;;;3.17;;
5257;SDS011;2651;51.594;9.928;2022-08-19T05:53:54;6.63;;;3.27;;
5257;SDS011;2651;51.594;9.928;2022-08-19T05:54:56;3.90;;;3.37;;
5257;SDS011;2651;51.594;9.928;2022-08-19T05:55:58;6.70;;;3.30;;
5257;SDS011;2651;51.594;9.928;2022-08-19T05:57:04;3.30;;;3.00;;
5257;SDS011;2651;51.594;9.928;2022-08-19T05:58:06;4.67;;;3.40;;
5257;SDS011;2651;51.594;9.928;2022-08-19T05:59:10;3.60;;;3.30;;
5257;SDS011;2651;51.594;9.928;2022-08-19T06:00:12;5.80;;;2.90;;
5257;SDS011;2651;51.594;9.928;2022-08-19T06:01:16;3.83;;;3.40;;
5257;SDS011;2651;51.594;9.928;2022-08-19T06:02:19;4.17;;;2.70;;
5257;SDS011;2651;51.594;9.928;2022-08-19T06:03:21;4.50;;;3.87;;
5257;SDS011;2651;51.594;9.928;2022-08-19T06:04:23;4.80;;;3.47;;
5257;SDS011;2651;51.594;9.928;2022-08-19T06:05:25;3.07;;;2.87;;
5257;SDS011;2651;51.594;9.928;2022-08-19T06:06:27;3.63;;;3.33;;
5257;SDS011;2651;51.594;9.928;2022-08-19T06:07:29;6.33;;;3.50;;
5257;SDS011;2651;51.594;9.928;2022-08-19T06:08:31;4.07;;;3.53;;
5257;SDS011;2651;51.594;9.928;2022-08-19T06:09:35;3.63;;;3.30;;
5257;SDS011;2651;51.594;9.928;2022-08-19T06:10:39;3.80;;;3.07;;
5257;SDS011;2651;51.594;9.928;2022-08-19T06:11:45;4.17;;;2.80;;
5257;SDS011;2651;51.594;9.928;2022-08-19T06:12:56;5.93;;;3.30;;
5257;SDS011;2651;51.594;9.928;2022-08-19T06:13:59;3.80;;;2.87;;
5257;SDS011;2651;51.594;9.928;2022-08-19T06:15:10;3.23;;;2.93;;
5257;SDS011;2651;51.594;9.928;2022-08-19T06:16:14;8.03;;;3.63;;
5257;SDS011;2651;51.594;9.928;2022-08-19T06:17:22;3.13;;;2.80;;
5257;SDS011;2651;51.594;9.928;2022-08-19T06:18:26;3.10;;;2.80;;
5257;SDS011;2651;51.594;9.928;2022-08-19T06:19:29;3.33;;;3.03;;
5257;SDS011;2651;51.594;9.928;2022-08-19T06:20:32;3.20;;;2.77;;
5257;SDS011;2651;51.594;9.928;2022-08-19T06:21:54;4.47;;;3.23;;
5257;SDS011;2651;51.594;9.928;2022-08-19T06:22:56;4.50;;;3.17;;
5257;SDS011;2651;51.594;9.928;2022-08-19T06:23:59;3.23;;;2.97;;
5257;SDS011;2651;51.594;9.928;2022-08-19T06:25:03;6.73;;;2.93;;
5257;SDS011;2651;51.594;9.928;2022-08-19T06:26:06;5.37;;;3.10;;
5257;SDS011;2651;51.594;9.928;2022-08-19T06:27:12;3.53;;;2.67;;
5257;SDS011;2651;51.594;9.928;2022-08-19T06:28:15;2.33;;;2.23;;
5257;SDS011;2651;51.594;9.928;2022-08-19T06:29:18;3.60;;;2.43;;
5257;SDS011;2651;51.594;9.928;2022-08-19T06:30:25;3.40;;;3.00;;
5257;SDS011;2651;51.594;9.928;2022-08-19T06:31:27;3.57;;;2.30;;
5257;SDS011;2651;51.594;9.928;2022-08-19T06:32:30;9.30;;;3.40;;
5257;SDS011;2651;51.594;9.928;2022-08-19T06:33:33;10.73;;;2.70;;
5257;SDS011;2651;51.594;9.928;2022-08-19T06:34:35;6.67;;;3.10;;
5257;SDS011;2651;51.594;9.928;2022-08-19T06:39:39;3.73;;;2.40;;
5257;SDS011;2651;51.594;9.928;2022-08-19T06:40:43;7.33;;;3.37;;
5257;SDS011;2651;51.594;9.928;2022-08-19T06:41:46;3.07;;;2.73;;
5257;SDS011;2651;51.594;9.928;2022-08-19T06:45:16;4.40;;;2.77;;
5257;SDS011;2651;51.594;9.928;2022-08-19T06:46:25;2.67;;;2.43;;
5257;SDS011;2651;51.594;9.928;2022-08-19T06:47:27;2.93;;;2.60;;
5257;SDS011;2651;51.594;9.928;2022-08-19T06:48:30;2.83;;;2.57;;
5257;SDS011;2651;51.594;9.928;2022-08-19T06:49:37;3.57;;;2.67;;
5257;SDS011;2651;51.594;9.928;2022-08-19T06:50:40;5.53;;;3.37;;
5257;SDS011;2651;51.594;9.928;2022-08-19T06:51:47;2.87;;;2.53;;
5257;SDS011;2651;51.594;9.928;2022-08-19T06:52:52;3.00;;;2.80;;
5257;SDS011;2651;51.594;9.928;2022-08-19T06:53:55;4.07;;;2.77;;
5257;SDS011;2651;51.594;9.928;2022-08-19T06:54:57;4.10;;;2.50;;
5257;SDS011;2651;51.594;9.928;2022-08-19T06:56:01;2.80;;;2.60;;
5257;SDS011;2651;51.594;9.928;2022-08-19T06:57:03;3.10;;;2.80;;
5257;SDS011;2651;51.594;9.928;2022-08-19T06:58:06;3.23;;;2.50;;
5257;SDS011;2651;51.594;9.928;2022-08-19T06:59:15;3.60;;;2.83;;
5257;SDS011;2651;51.594;9.928;2022-08-19T07:00:19;2.93;;;2.73;;
5257;SDS011;2651;51.594;9.928;2022-08-19T07:01:23;3.40;;;3.10;;
5257;SDS011;2651;51.594;9.928;2022-08-19T07:02:25;2.97;;;2.77;;
5257;SDS011;2651;51.594;9.928;2022-08-19T07:03:31;4.03;;;2.43;;
5257;SDS011;2651;51.594;9.928;2022-08-19T07:04:37;2.93;;;2.60;;
5257;SDS011;2651;51.594;9.928;2022-08-19T07:05:42;3.17;;;2.97;;
5257;SDS011;2651;51.594;9.928;2022-08-19T07:06:46;3.63;;;3.00;;
5257;SDS011;2651;51.594;9.928;2022-08-19T07:10:23;2.80;;;2.60;;
5257;SDS011;2651;51.594;9.928;2022-08-19T07:11:26;2.50;;;2.30;;
5257;SDS011;2651;51.594;9.928;2022-08-19T07:12:30;3.40;;;2.70;;
5257;SDS011;2651;51.594;9.928;2022-08-19T07:13:39;4.93;;;3.10;;
5257;SDS011;2651;51.594;9.928;2022-08-19T07:14:44;3.20;;;2.53;;
5257;SDS011;2651;51.594;9.928;2022-08-19T07:15:49;4.10;;;3.23;;
5257;SDS011;2651;51.594;9.928;2022-08-19T07:16:52;2.93;;;2.67;;
5257;SDS011;2651;51.594;9.928;2022-08-19T07:17:56;2.80;;;2.60;;
5257;SDS011;2651;51.594;9.928;2022-08-19T07:18:58;4.80;;;3.23;;
5257;SDS011;2651;51.594;9.928;2022-08-19T07:20:13;6.20;;;3.17;;
5257;SDS011;2651;51.594;9.928;2022-08-19T07:21:19;4.33;;;2.40;;
5257;SDS011;2651;51.594;9.928;2022-08-19T07:22:31;6.23;;;3.00;;
5257;SDS011;2651;51.594;9.928;2022-08-19T07:23:33;4.43;;;3.10;;
5257;SDS011;2651;51.594;9.928;2022-08-19T07:24:36;6.70;;;3.10;;
5257;SDS011;2651;51.594;9.928;2022-08-19T07:25:45;3.73;;;2.70;;
5257;SDS011;2651;51.594;9.928;2022-08-19T07:26:54;4.17;;;3.00;;
5257;SDS011;2651;51.594;9.928;2022-08-19T07:28:01;2.83;;;2.63;;
5257;SDS011;2651;51.594;9.928;2022-08-19T07:29:04;6.60;;;3.40;;
5257;SDS011;2651;51.594;9.928;2022-08-19T07:30:07;3.43;;;3.13;;
5257;SDS011;2651;51.594;9.928;2022-08-19T07:31:13;3.83;;;2.80;;
5257;SDS011;2651;51.594;9.928;2022-08-19T07:32:24;3.00;;;2.80;;
5257;SDS011;2651;51.594;9.928;2022-08-19T07:33:29;9.00;;;3.20;;
5257;SDS011;2651;51.594;9.928;2022-08-19T07:34:34;3.43;;;2.73;;
5257;SDS011;2651;51.594;9.928;2022-08-19T07:35:41;21.40;;;3.27;;
5257;SDS011;2651;51.594;9.928;2022-08-19T07:36:43;3.93;;;2.90;;
5257;SDS011;2651;51.594;9.928;2022-08-19T07:37:55;6.93;;;3.27;;
5257;SDS011;2651;51.594;9.928;2022-08-19T07:38:58;4.67;;;2.83;;
5257;SDS011;2651;51.594;9.928;2022-08-19T07:40:03;3.30;;;3.00;;
5257;SDS011;2651;51.594;9.928;2022-08-19T07:41:09;5.43;;;3.10;;
5257;SDS011;2651;51.594;9.928;2022-08-19T07:42:15;3.13;;;2.90;;
5257;SDS011;2651;51.594;9.928;2022-08-19T07:43:21;3.77;;;2.90;;
5257;SDS011;2651;51.594;9.928;2022-08-19T07:44:35;7.90;;;3.03;;
5257;SDS011;2651;51.594;9.928;2022-08-19T07:45:39;3.60;;;3.20;;
5257;SDS011;2651;51.594;9.928;2022-08-19T07:46:42;3.17;;;2.87;;
5257;SDS011;2651;51.594;9.928;2022-08-19T07:47:49;3.83;;;3.00;;
5257;SDS011;2651;51.594;9.928;2022-08-19T07:48:51;3.53;;;2.67;;
5257;SDS011;2651;51.594;9.928;2022-08-19T07:49:53;6.50;;;3.30;;
5257;SDS011;2651;51.594;9.928;2022-08-19T07:50:59;3.57;;;2.97;;
5257;SDS011;2651;51.594;9.928;2022-08-19T07:52:08;4.53;;;3.10;;
5257;SDS011;2651;51.594;9.928;2022-08-19T07:53:11;9.03;;;2.80;;
5257;SDS011;2651;51.594;9.928;2022-08-19T07:54:15;4.20;;;2.87;;
5257;SDS011;2651;51.594;9.928;2022-08-19T07:55:18;4.60;;;3.20;;
5257;SDS011;2651;51.594;9.928;2022-08-19T07:56:43;3.50;;;2.80;;
5257;SDS011;2651;51.594;9.928;2022-08-19T07:57:45;3.43;;;3.13;;
5257;SDS011;2651;51.594;9.928;2022-08-19T07:58:47;4.90;;;3.47;;
5257;SDS011;2651;51.594;9.928;2022-08-19T07:59:54;11.20;;;2.97;;
5257;SDS011;2651;51.594;9.928;2022-08-19T08:00:56;7.43;;;3.13;;
5257;SDS011;2651;51.594;9.928;2022-08-19T08:01:58;4.73;;;2.93;;
5257;SDS011;2651;51.594;9.928;2022-08-19T08:03:01;3.33;;;3.00;;
5257;SDS011;2651;51.594;9.928;2022-08-19T08:04:03;9.00;;;3.17;;
5257;SDS011;2651;51.594;9.928;2022-08-19T08:05:23;7.03;;;3.00;;
5257;SDS011;2651;51.594;9.928;2022-08-19T08:06:44;3.00;;;2.80;;
5257;SDS011;2651;51.594;9.928;2022-08-19T08:08:05;3.00;;;2.80;;
5257;SDS011;2651;51.594;9.928;2022-08-19T08:09:48;4.93;;;2.97;;
5257;SDS011;2651;51.594;9.928;2022-08-19T08:10:50;3.97;;;2.90;;
5257;SDS011;2651;51.594;9.928;2022-08-19T08:11:58;4.87;;;2.93;;
5257;SDS011;2651;51.594;9.928;2022-08-19T08:13:24;4.43;;;2.97;;
5257;SDS011;2651;51.594;9.928;2022-08-19T08:14:28;3.57;;;2.87;;
5257;SDS011;2651;51.594;9.928;2022-08-19T08:15:36;4.50;;;3.10;;
5257;SDS011;2651;51.594;9.928;2022-08-19T08:16:43;2.93;;;2.73;;
5257;SDS011;2651;51.594;9.928;2022-08-19T08:17:47;3.10;;;2.80;;
5257;SDS011;2651;51.594;9.928;2022-08-19T08:18:51;7.23;;;3.00;;
5257;SDS011;2651;51.594;9.928;2022-08-19T08:19:54;2.93;;;2.70;;
5257;SDS011;2651;51.594;9.928;2022-08-19T08:20:56;3.93;;;3.07;;
5257;SDS011;2651;51.594;9.928;2022-08-19T08:22:00;3.07;;;2.77;;
5257;SDS011;2651;51.594;9.928;2022-08-19T08:23:02;5.10;;;3.00;;
5257;SDS011;2651;51.594;9.928;2022-08-19T08:24:23;4.37;;;3.40;;
5257;SDS011;2651;51.594;9.928;2022-08-19T08:25:29;4.10;;;2.90;;
5257;SDS011;2651;51.594;9.928;2022-08-19T08:26:35;7.30;;;3.47;;
5257;SDS011;2651;51.594;9.928;2022-08-19T08:27:40;4.63;;;2.70;;
5257;SDS011;2651;51.594;9.928;2022-08-19T08:28:53;5.40;;;2.83;;
5257;SDS011;2651;51.594;9.928;2022-08-19T08:29:55;4.23;;;2.70;;
5257;SDS011;2651;51.594;9.928;2022-08-19T08:30:58;3.27;;;3.00;;
5257;SDS011;2651;51.594;9.928;2022-08-19T08:32:09;3.77;;;3.47;;
5257;SDS011;2651;51.594;9.928;2022-08-19T08:33:21;3.93;;;3.13;;
5257;SDS011;2651;51.594;9.928;2022-08-19T08:34:34;2.80;;;2.60;;
5257;SDS011;2651;51.594;9.928;2022-08-19T08:35:38;4.70;;;2.90;;
5257;SDS011;2651;51.594;9.928;2022-08-19T08:36:46;3.67;;;2.93;;
5257;SDS011;2651;51.594;9.928;2022-08-19T08:37:49;2.67;;;2.57;;
5257;SDS011;2651;51.594;9.928;2022-08-19T08:38:54;4.27;;;3.23;;
5257;SDS011;2651;51.594;9.928;2022-08-19T08:40:07;3.10;;;2.80;;
5257;SDS011;2651;51.594;9.928;2022-08-19T08:41:54;5.00;;;2.90;;
5257;SDS011;2651;51.594;9.928;2022-08-19T08:44:29;4.33;;;3.23;;
5257;SDS011;2651;51.594;9.928;2022-08-19T08:45:59;4.50;;;3.00;;
5257;SDS011;2651;51.594;9.928;2022-08-19T08:47:09;3.13;;;2.93;;
5257;SDS011;2651;51.594;9.928;2022-08-19T08:48:41;3.70;;;2.77;;
5257;SDS011;2651;51.594;9.928;2022-08-19T08:50:09;4.00;;;2.87;;
5257;SDS011;2651;51.594;9.928;2022-08-19T08:51:18;4.93;;;3.17;;
5257;SDS011;2651;51.594;9.928;2022-08-19T08:52:36;3.97;;;3.53;;
5257;SDS011;2651;51.594;9.928;2022-08-19T08:53:44;5.07;;;3.50;;
5257;SDS011;2651;51.594;9.928;2022-08-19T08:54:57;4.07;;;3.37;;
5257;SDS011;2651;51.594;9.928;2022-08-19T08:56:10;3.10;;;2.90;;
5257;SDS011;2651;51.594;9.928;2022-08-19T08:57:19;6.13;;;3.40;;
5257;SDS011;2651;51.594;9.928;2022-08-19T08:59:10;3.43;;;3.13;;
5257;SDS011;2651;51.594;9.928;2022-08-19T09:00:36;5.13;;;3.83;;
5257;SDS011;2651;51.594;9.928;2022-08-19T09:01:46;6.53;;;3.20;;
5257;SDS011;2651;51.594;9.928;2022-08-19T09:02:56;4.20;;;3.90;;
5257;SDS011;2651;51.594;9.928;2022-08-19T09:04:02;8.60;;;3.27;;
5257;SDS011;2651;51.594;9.928;2022-08-19T09:05:08;3.07;;;2.70;;
5257;SDS011;2651;51.594;9.928;2022-08-19T09:06:23;4.63;;;3.30;;
5257;SDS011;2651;51.594;9.928;2022-08-19T09:10:37;5.93;;;3.30;;
5257;SDS011;2651;51.594;9.928;2022-08-19T09:15:33;3.97;;;3.27;;
5257;SDS011;2651;51.594;9.928;2022-08-19T09:16:41;5.07;;;2.83;;
5257;SDS011;2651;51.594;9.928;2022-08-19T09:17:54;6.63;;;3.60;;
5257;SDS011;2651;51.594;9.928;2022-08-19T09:21:29;4.37;;;3.70;;
5257;SDS011;2651;51.594;9.928;2022-08-19T09:22:37;4.10;;;3.27;;
5257;SDS011;2651;51.594;9.928;2022-08-19T09:23:47;5.17;;;3.80;;
5257;SDS011;2651;51.594;9.928;2022-08-19T09:24:51;4.33;;;3.93;;
5257;SDS011;2651;51.594;9.928;2022-08-19T09:25:56;7.53;;;3.00;;
5257;SDS011;2651;51.594;9.928;2022-08-19T09:27:02;3.73;;;3.00;;
5257;SDS011;2651;51.594;9.928;2022-08-19T09:28:19;4.70;;;3.10;;
5257;SDS011;2651;51.594;9.928;2022-08-19T09:29:27;8.47;;;3.00;;
5257;SDS011;2651;51.594;9.928;2022-08-19T09:30:39;3.70;;;3.40;;
5257;SDS011;2651;51.594;9.928;2022-08-19T09:31:49;4.60;;;3.20;;
5257;SDS011;2651;51.594;9.928;2022-08-19T09:32:52;6.13;;;3.80;;
5257;SDS011;2651;51.594;9.928;2022-08-19T09:33:55;4.60;;;3.37;;
5257;SDS011;2651;51.594;9.928;2022-08-19T09:40:41;4.93;;;3.77;;
5257;SDS011;2651;51.594;9.928;2022-08-19T09:41:43;4.63;;;2.67;;
5257;SDS011;2651;51.594;9.928;2022-08-19T09:47:27;4.47;;;2.70;;
5257;SDS011;2651;51.594;9.928;2022-08-19T09:48:32;9.73;;;1.93;;
5257;SDS011;2651;51.594;9.928;2022-08-19T09:49:39;8.70;;;2.57;;
5257;SDS011;2651;51.594;9.928;2022-08-19T09:50:41;5.60;;;3.33;;
5257;SDS011;2651;51.594;9.928;2022-08-19T09:51:52;5.60;;;2.53;;
5257;SDS011;2651;51.594;9.928;2022-08-19T09:52:57;2.87;;;2.50;;
5257;SDS011;2651;51.594;9.928;2022-08-19T09:54:00;4.17;;;2.40;;
5257;SDS011;2651;51.594;9.928;2022-08-19T09:55:05;3.67;;;2.30;;
5257;SDS011;2651;51.594;9.928;2022-08-19T09:56:09;2.43;;;2.23;;
5257;SDS011;2651;51.594;9.928;2022-08-19T09:57:12;11.33;;;2.30;;
5257;SDS011;2651;51.594;9.928;2022-08-19T09:58:14;9.70;;;2.73;;
5257;SDS011;2651;51.594;9.928;2022-08-19T09:59:16;3.50;;;2.53;;
5257;SDS011;2651;51.594;9.928;2022-08-19T10:00:17;2.30;;;2.10;;
5257;SDS011;2651;51.594;9.928;2022-08-19T10:01:21;5.13;;;3.10;;
5257;SDS011;2651;51.594;9.928;2022-08-19T10:02:25;3.33;;;2.43;;
5257;SDS011;2651;51.594;9.928;2022-08-19T10:03:29;3.53;;;2.30;;
5257;SDS011;2651;51.594;9.928;2022-08-19T10:04:32;7.80;;;3.17;;
5257;SDS011;2651;51.594;9.928;2022-08-19T10:05:53;2.57;;;2.37;;
5257;SDS011;2651;51.594;9.928;2022-08-19T10:06:55;2.90;;;2.30;;
5257;SDS011;2651;51.594;9.928;2022-08-19T10:07:57;2.50;;;2.07;;
5257;SDS011;2651;51.594;9.928;2022-08-19T10:09:08;2.73;;;2.07;;
5257;SDS011;2651;51.594;9.928;2022-08-19T10:10:11;3.60;;;2.00;;
5257;SDS011;2651;51.594;9.928;2022-08-19T10:11:14;2.17;;;2.00;;
5257;SDS011;2651;51.594;9.928;2022-08-19T10:12:36;5.53;;;2.30;;
5257;SDS011;2651;51.594;9.928;2022-08-19T10:13:38;3.13;;;1.97;;
5257;SDS011;2651;51.594;9.928;2022-08-19T10:14:41;2.10;;;1.90;;
5257;SDS011;2651;51.594;9.928;2022-08-19T10:15:43;3.17;;;1.87;;
5257;SDS011;2651;51.594;9.928;2022-08-19T10:16:49;3.50;;;2.00;;
5257;SDS011;2651;51.594;9.928;2022-08-19T10:17:53;1.80;;;1.70;;
5257;SDS011;2651;51.594;9.928;2022-08-19T10:18:56;1.70;;;1.60;;
5257;SDS011;2651;51.594;9.928;2022-08-19T10:19:59;4.77;;;1.80;;
5257;SDS011;2651;51.594;9.928;2022-08-19T10:22:19;1.93;;;1.83;;
5257;SDS011;2651;51.594;9.928;2022-08-19T10:23:20;1.83;;;1.57;;
5257;SDS011;2651;51.594;9.928;2022-08-19T10:24:23;1.80;;;1.70;;
5257;SDS011;2651;51.594;9.928;2022-08-19T10:25:25;1.97;;;1.77;;
5257;SDS011;2651;51.594;9.928;2022-08-19T10:26:31;2.10;;;1.80;;
5257;SDS011;2651;51.594;9.928;2022-08-19T10:27:36;2.90;;;1.53;;
5257;SDS011;2651;51.594;9.928;2022-08-19T10:28:40;2.20;;;1.40;;
5257;SDS011;2651;51.594;9.928;2022-08-19T10:29:42;6.43;;;1.67;;
5257;SDS011;2651;51.594;9.928;2022-08-19T10:30:49;2.87;;;1.27;;
5257;SDS011;2651;51.594;9.928;2022-08-19T10:31:51;3.37;;;1.30;;
5257;SDS011;2651;51.594;9.928;2022-08-19T10:33:03;1.83;;;1.50;;
5257;SDS011;2651;51.594;9.928;2022-08-19T10:34:11;1.80;;;1.70;;
5257;SDS011;2651;51.594;9.928;2022-08-19T10:35:27;2.33;;;1.70;;
5257;SDS011;2651;51.594;9.928;2022-08-19T10:36:43;1.53;;;1.43;;
5257;SDS011;2651;51.594;9.928;2022-08-19T10:37:56;1.50;;;1.40;;
5257;SDS011;2651;51.594;9.928;2022-08-19T10:39:03;4.53;;;1.57;;
5257;SDS011;2651;51.594;9.928;2022-08-19T10:40:11;2.13;;;1.63;;
5257;SDS011;2651;51.594;9.928;2022-08-19T10:41:14;3.47;;;1.90;;
5257;SDS011;2651;51.594;9.928;2022-08-19T10:42:18;3.00;;;1.40;;
5257;SDS011;2651;51.594;9.928;2022-08-19T10:43:20;1.70;;;1.60;;
5257;SDS011;2651;51.594;9.928;2022-08-19T10:44:22;2.13;;;1.80;;
5257;SDS011;2651;51.594;9.928;2022-08-19T10:45:32;1.80;;;1.70;;
5257;SDS011;2651;51.594;9.928;2022-08-19T10:46:38;1.40;;;1.30;;
5257;SDS011;2651;51.594;9.928;2022-08-19T10:47:50;3.57;;;1.60;;
5257;SDS011;2651;51.594;9.928;2022-08-19T10:48:53;1.70;;;1.60;;
5257;SDS011;2651;51.594;9.928;2022-08-19T10:49:58;2.13;;;1.33;;
5257;SDS011;2651;51.594;9.928;2022-08-19T10:51:28;1.50;;;1.40;;
5257;SDS011;2651;51.594;9.928;2022-08-19T10:52:49;9.37;;;1.60;;
5257;SDS011;2651;51.594;9.928;2022-08-19T10:53:51;2.47;;;1.77;;
5257;SDS011;2651;51.594;9.928;2022-08-19T10:54:53;3.27;;;1.67;;
5257;SDS011;2651;51.594;9.928;2022-08-19T10:56:14;1.60;;;1.50;;
5257;SDS011;2651;51.594;9.928;2022-08-19T10:57:52;1.63;;;1.43;;
5257;SDS011;2651;51.594;9.928;2022-08-19T10:59:03;1.60;;;1.50;;
5257;SDS011;2651;51.594;9.928;2022-08-19T11:00:06;2.80;;;2.30;;
5257;SDS011;2651;51.594;9.928;2022-08-19T11:01:08;4.10;;;1.60;;
5257;SDS011;2651;51.594;9.928;2022-08-19T11:02:11;2.73;;;1.87;;
5257;SDS011;2651;51.594;9.928;2022-08-19T11:03:14;1.80;;;1.70;;
5257;SDS011;2651;51.594;9.928;2022-08-19T11:04:16;2.17;;;1.67;;
5257;SDS011;2651;51.594;9.928;2022-08-19T11:05:20;6.00;;;1.90;;
5257;SDS011;2651;51.594;9.928;2022-08-19T11:06:24;12.70;;;1.80;;
5257;SDS011;2651;51.594;9.928;2022-08-19T11:07:26;4.23;;;1.40;;
5257;SDS011;2651;51.594;9.928;2022-08-19T11:08:34;2.53;;;1.63;;
5257;SDS011;2651;51.594;9.928;2022-08-19T11:09:39;2.13;;;1.60;;
5257;SDS011;2651;51.594;9.928;2022-08-19T11:10:42;1.80;;;1.70;;
5257;SDS011;2651;51.594;9.928;2022-08-19T11:11:50;2.90;;;1.83;;
5257;SDS011;2651;51.594;9.928;2022-08-19T11:13:03;6.83;;;1.63;;
5257;SDS011;2651;51.594;9.928;2022-08-19T11:14:04;38.97;;;3.37;;
5257;SDS011;2651;51.594;9.928;2022-08-19T11:15:09;5.53;;;1.57;;
5257;SDS011;2651;51.594;9.928;2022-08-19T11:16:15;7.17;;;1.70;;
5257;SDS011;2651;51.594;9.928;2022-08-19T11:17:23;1.40;;;1.30;;
5257;SDS011;2651;51.594;9.928;2022-08-19T11:18:25;1.23;;;1.10;;
5257;SDS011;2651;51.594;9.928;2022-08-19T11:19:27;2.17;;;1.97;;
5257;SDS011;2651;51.594;9.928;2022-08-19T11:20:39;2.60;;;2.50;;
5257;SDS011;2651;51.594;9.928;2022-08-19T11:21:41;18.70;;;4.40;;
5257;SDS011;2651;51.594;9.928;2022-08-19T11:22:48;4.13;;;1.77;;